WON1896 WICC-WAHS
Flight info
| Callsign | WON1896 |
|---|---|
| Flight time | 0h 58m |
| Altitude | 17000 |
| Route | CA1T PIALA PIAL1C |
| Aircraft | AT76/M-SDFGIRY/S |
Departure
| Time | 2026-04-29 09:32 |
|---|---|
| Airport | Husein Sastranegara International Airport (WICC) |
Arrival
| Time | 2026-04-29 10:30 |
|---|---|
| Airport | Jenderal Ahmad Yani Airport (WAHS) |
| Time | Latitude | Longitude | Altitude | Speed | Heading |
|---|---|---|---|---|---|
| 2026-04-29 09:13 | -6.90266 | 107.57736 | 2415 ft | 0 kts | 186° |
| 2026-04-29 09:26 | -6.90278 | 107.57734 | 2402 ft | 4 kts | 197° |
| 2026-04-29 09:27 | -6.90291 | 107.57700 | 2412 ft | 7 kts | 276° |
| 2026-04-29 09:27 | -6.90265 | 107.57666 | 2409 ft | 7 kts | 354° |
| 2026-04-29 09:27 | -6.90219 | 107.57676 | 2408 ft | 7 kts | 15° |
| 2026-04-29 09:27 | -6.90155 | 107.57698 | 2415 ft | 13 kts | 21° |
| 2026-04-29 09:28 | -6.90117 | 107.57781 | 2417 ft | 19 kts | 111° |
| 2026-04-29 09:28 | -6.90168 | 107.57924 | 2416 ft | 24 kts | 109° |
| 2026-04-29 09:28 | -6.90224 | 107.58089 | 2425 ft | 26 kts | 109° |
| 2026-04-29 09:28 | -6.90284 | 107.58264 | 2429 ft | 28 kts | 109° |
| 2026-04-29 09:29 | -6.90344 | 107.58440 | 2423 ft | 25 kts | 109° |
| 2026-04-29 09:29 | -6.90385 | 107.58548 | 2415 ft | 2 kts | 354° |
| 2026-04-29 09:29 | -6.90375 | 107.58537 | 2415 ft | 2 kts | 303° |
| 2026-04-29 09:30 | -6.90372 | 107.58532 | 2414 ft | 0 kts | 288° |
| 2026-04-29 09:31 | -6.90369 | 107.58522 | 2418 ft | 15 kts | 287° |
| 2026-04-29 09:31 | -6.90275 | 107.58237 | 2426 ft | 72 kts | 289° |
| 2026-04-29 09:31 | -6.90042 | 107.57568 | 2416 ft | 127 kts | 288° |
| 2026-04-29 09:31 | -6.89761 | 107.56646 | 2742 ft | 139 kts | 288° |
| 2026-04-29 09:32 | -6.89503 | 107.55722 | 3348 ft | 136 kts | 288° |
| 2026-04-29 09:32 | -6.89237 | 107.54816 | 3865 ft | 134 kts | 288° |
| 2026-04-29 09:32 | -6.88981 | 107.53907 | 4404 ft | 134 kts | 288° |
| 2026-04-29 09:32 | -6.88739 | 107.52992 | 4939 ft | 136 kts | 288° |
| 2026-04-29 09:33 | -6.88506 | 107.52057 | 5318 ft | 144 kts | 286° |
| 2026-04-29 09:33 | -6.88223 | 107.50991 | 5306 ft | 170 kts | 287° |
| 2026-04-29 09:33 | -6.87893 | 107.49797 | 5295 ft | 188 kts | 289° |
| 2026-04-29 09:33 | -6.87529 | 107.48483 | 5375 ft | 199 kts | 287° |
| 2026-04-29 09:34 | -6.87104 | 107.47153 | 5572 ft | 200 kts | 292° |
| 2026-04-29 09:34 | -6.86638 | 107.45829 | 5801 ft | 201 kts | 289° |
| 2026-04-29 09:34 | -6.86286 | 107.44464 | 6018 ft | 201 kts | 286° |
| 2026-04-29 09:34 | -6.85900 | 107.43107 | 6224 ft | 203 kts | 289° |
| 2026-04-29 09:35 | -6.85493 | 107.41744 | 6450 ft | 202 kts | 288° |
| 2026-04-29 09:35 | -6.85114 | 107.40375 | 6623 ft | 204 kts | 287° |
| 2026-04-29 09:35 | -6.84726 | 107.38974 | 6782 ft | 210 kts | 287° |
| 2026-04-29 09:35 | -6.84315 | 107.37567 | 7094 ft | 206 kts | 288° |
| 2026-04-29 09:36 | -6.83920 | 107.36217 | 7434 ft | 203 kts | 287° |
| 2026-04-29 09:36 | -6.83539 | 107.34848 | 7707 ft | 203 kts | 287° |
| 2026-04-29 09:36 | -6.83145 | 107.33480 | 7970 ft | 205 kts | 288° |
| 2026-04-29 09:36 | -6.82774 | 107.32095 | 8230 ft | 206 kts | 278° |
| 2026-04-29 09:37 | -6.83085 | 107.30713 | 8495 ft | 208 kts | 234° |
| 2026-04-29 09:37 | -6.84229 | 107.29881 | 8739 ft | 206 kts | 192° |
| 2026-04-29 09:37 | -6.85611 | 107.29995 | 8977 ft | 200 kts | 149° |
| 2026-04-29 09:37 | -6.86530 | 107.30970 | 9221 ft | 194 kts | 107° |
| 2026-04-29 09:38 | -6.86807 | 107.32288 | 9437 ft | 192 kts | 95° |
| 2026-04-29 09:38 | -6.86972 | 107.33609 | 9691 ft | 193 kts | 94° |
| 2026-04-29 09:38 | -6.87070 | 107.34966 | 9930 ft | 194 kts | 90° |
| 2026-04-29 09:38 | -6.87121 | 107.36328 | 10162 ft | 195 kts | 89° |
| 2026-04-29 09:39 | -6.87210 | 107.37692 | 10385 ft | 197 kts | 94° |
| 2026-04-29 09:39 | -6.87376 | 107.39063 | 10611 ft | 198 kts | 93° |
| 2026-04-29 09:39 | -6.87462 | 107.40441 | 10840 ft | 198 kts | 90° |
| 2026-04-29 09:39 | -6.87546 | 107.41828 | 11054 ft | 199 kts | 92° |
| 2026-04-29 09:40 | -6.87660 | 107.43219 | 11264 ft | 200 kts | 91° |
| 2026-04-29 09:40 | -6.87753 | 107.44610 | 11502 ft | 200 kts | 91° |
| 2026-04-29 09:40 | -6.87854 | 107.46011 | 11722 ft | 201 kts | 91° |
| 2026-04-29 09:40 | -6.87960 | 107.47415 | 11954 ft | 202 kts | 91° |
| 2026-04-29 09:41 | -6.88067 | 107.48824 | 12173 ft | 202 kts | 91° |
| 2026-04-29 09:41 | -6.88175 | 107.50236 | 12384 ft | 203 kts | 91° |
| 2026-04-29 09:41 | -6.88282 | 107.51661 | 12580 ft | 204 kts | 90° |
| 2026-04-29 09:41 | -6.88099 | 107.53058 | 12741 ft | 202 kts | 75° |
| 2026-04-29 09:42 | -6.87772 | 107.54418 | 12913 ft | 203 kts | 74° |
| 2026-04-29 09:42 | -6.87442 | 107.55803 | 13105 ft | 204 kts | 75° |
| 2026-04-29 09:42 | -6.87147 | 107.57201 | 13282 ft | 205 kts | 76° |
| 2026-04-29 09:42 | -6.86888 | 107.58617 | 13466 ft | 205 kts | 77° |
| 2026-04-29 09:43 | -6.86649 | 107.60035 | 13641 ft | 206 kts | 78° |
| 2026-04-29 09:43 | -6.86406 | 107.61457 | 13812 ft | 206 kts | 77° |
| 2026-04-29 09:43 | -6.86158 | 107.62883 | 13969 ft | 206 kts | 78° |
| 2026-04-29 09:43 | -6.85908 | 107.64308 | 14132 ft | 207 kts | 77° |
| 2026-04-29 09:44 | -6.85653 | 107.65735 | 14281 ft | 208 kts | 77° |
| 2026-04-29 09:44 | -6.85402 | 107.67167 | 14450 ft | 208 kts | 77° |
| 2026-04-29 09:44 | -6.85151 | 107.68601 | 14580 ft | 209 kts | 77° |
| 2026-04-29 09:44 | -6.84901 | 107.70023 | 14738 ft | 209 kts | 77° |
| 2026-04-29 09:45 | -6.84648 | 107.71477 | 14907 ft | 208 kts | 77° |
| 2026-04-29 09:45 | -6.84396 | 107.72901 | 15051 ft | 209 kts | 77° |
| 2026-04-29 09:45 | -6.84142 | 107.74348 | 15187 ft | 210 kts | 77° |
| 2026-04-29 09:45 | -6.83888 | 107.75796 | 15320 ft | 211 kts | 77° |
| 2026-04-29 09:46 | -6.83632 | 107.77251 | 15438 ft | 212 kts | 78° |
| 2026-04-29 09:46 | -6.83380 | 107.78710 | 15554 ft | 212 kts | 78° |
| 2026-04-29 09:46 | -6.83123 | 107.80172 | 15690 ft | 212 kts | 78° |
| 2026-04-29 09:46 | -6.82865 | 107.81636 | 15801 ft | 213 kts | 78° |
| 2026-04-29 09:47 | -6.82606 | 107.83105 | 15916 ft | 214 kts | 78° |
| 2026-04-29 09:47 | -6.82348 | 107.84576 | 16045 ft | 214 kts | 78° |
| 2026-04-29 09:47 | -6.82089 | 107.86059 | 16158 ft | 215 kts | 78° |
| 2026-04-29 09:47 | -6.81827 | 107.87542 | 16290 ft | 216 kts | 78° |
| 2026-04-29 09:48 | -6.81564 | 107.89032 | 16538 ft | 216 kts | 78° |
| 2026-04-29 09:48 | -6.81304 | 107.90525 | 16718 ft | 217 kts | 78° |
| 2026-04-29 09:48 | -6.81047 | 107.92011 | 16872 ft | 215 kts | 78° |
| 2026-04-29 09:48 | -6.80785 | 107.93502 | 16945 ft | 218 kts | 78° |
| 2026-04-29 09:49 | -6.80515 | 107.95018 | 16974 ft | 221 kts | 78° |
| 2026-04-29 09:49 | -6.80244 | 107.96556 | 16989 ft | 225 kts | 78° |
| 2026-04-29 09:49 | -6.79970 | 107.98120 | 17000 ft | 229 kts | 78° |
| 2026-04-29 09:49 | -6.79693 | 107.99685 | 16998 ft | 231 kts | 78° |
| 2026-04-29 09:50 | -6.79409 | 108.01295 | 17003 ft | 234 kts | 78° |
| 2026-04-29 09:50 | -6.79125 | 108.02916 | 16998 ft | 236 kts | 78° |
| 2026-04-29 09:50 | -6.78837 | 108.04551 | 17001 ft | 238 kts | 78° |
| 2026-04-29 09:50 | -6.78547 | 108.06197 | 16994 ft | 239 kts | 78° |
| 2026-04-29 09:51 | -6.78256 | 108.07848 | 16996 ft | 242 kts | 78° |
| 2026-04-29 09:51 | -6.77958 | 108.09541 | 16996 ft | 250 kts | 78° |
| 2026-04-29 09:51 | -6.77653 | 108.11288 | 16995 ft | 256 kts | 78° |
| 2026-04-29 09:51 | -6.77344 | 108.13047 | 16992 ft | 261 kts | 78° |
| 2026-04-29 09:52 | -6.77020 | 108.14884 | 16993 ft | 265 kts | 78° |
| 2026-04-29 09:52 | -6.76699 | 108.16696 | 16993 ft | 268 kts | 79° |
| 2026-04-29 09:52 | -6.76371 | 108.18558 | 16988 ft | 271 kts | 79° |
| 2026-04-29 09:52 | -6.76044 | 108.20430 | 16987 ft | 273 kts | 79° |
| 2026-04-29 09:53 | -6.75711 | 108.22315 | 16985 ft | 274 kts | 79° |
| 2026-04-29 09:53 | -6.75376 | 108.24206 | 16984 ft | 275 kts | 79° |
| 2026-04-29 09:53 | -6.75042 | 108.26105 | 16981 ft | 276 kts | 79° |
| 2026-04-29 09:53 | -6.74705 | 108.28014 | 16931 ft | 278 kts | 79° |
| 2026-04-29 09:54 | -6.74366 | 108.29935 | 16889 ft | 279 kts | 79° |
| 2026-04-29 09:54 | -6.74027 | 108.31859 | 16876 ft | 280 kts | 79° |
| 2026-04-29 09:54 | -6.73687 | 108.33784 | 16864 ft | 279 kts | 79° |
| 2026-04-29 09:54 | -6.73347 | 108.35712 | 16859 ft | 279 kts | 79° |
| 2026-04-29 09:55 | -6.73007 | 108.37636 | 16858 ft | 279 kts | 79° |
| 2026-04-29 09:55 | -6.72671 | 108.39538 | 16861 ft | 279 kts | 79° |
| 2026-04-29 09:55 | -6.72333 | 108.41459 | 16854 ft | 279 kts | 79° |
| 2026-04-29 09:55 | -6.71993 | 108.43379 | 16853 ft | 279 kts | 79° |
| 2026-04-29 09:56 | -6.71654 | 108.45298 | 16855 ft | 278 kts | 79° |
| 2026-04-29 09:56 | -6.71316 | 108.47218 | 16854 ft | 278 kts | 79° |
| 2026-04-29 09:56 | -6.70976 | 108.49135 | 16848 ft | 278 kts | 79° |
| 2026-04-29 09:56 | -6.70637 | 108.51051 | 16849 ft | 278 kts | 79° |
| 2026-04-29 09:57 | -6.70299 | 108.52966 | 16849 ft | 278 kts | 79° |
| 2026-04-29 09:57 | -6.70074 | 108.54235 | 16849 ft | 278 kts | 79° |
| 2026-04-29 09:57 | -6.69761 | 108.56800 | 16847 ft | 276 kts | 93° |
| 2026-04-29 09:57 | -6.70078 | 108.58715 | 16847 ft | 278 kts | 100° |
| 2026-04-29 09:58 | -6.70348 | 108.59977 | 16849 ft | 279 kts | 101° |
| 2026-04-29 09:58 | -6.70751 | 108.61886 | 16849 ft | 279 kts | 100° |
| 2026-04-29 09:58 | -6.71098 | 108.63807 | 16847 ft | 279 kts | 98° |
| 2026-04-29 09:58 | -6.71397 | 108.65722 | 16850 ft | 279 kts | 97° |
| 2026-04-29 09:59 | -6.71700 | 108.67648 | 16848 ft | 279 kts | 98° |
| 2026-04-29 09:59 | -6.72010 | 108.69583 | 16847 ft | 280 kts | 98° |
| 2026-04-29 09:59 | -6.72319 | 108.71514 | 16847 ft | 280 kts | 98° |
| 2026-04-29 09:59 | -6.72628 | 108.73446 | 16848 ft | 280 kts | 98° |
| 2026-04-29 10:00 | -6.72938 | 108.75379 | 16851 ft | 280 kts | 98° |
| 2026-04-29 10:00 | -6.73249 | 108.77315 | 16850 ft | 280 kts | 98° |
| 2026-04-29 10:00 | -6.73557 | 108.79247 | 16848 ft | 280 kts | 98° |
| 2026-04-29 10:00 | -6.73867 | 108.81182 | 16850 ft | 280 kts | 98° |
| 2026-04-29 10:01 | -6.74176 | 108.83125 | 16846 ft | 280 kts | 98° |
| 2026-04-29 10:01 | -6.74486 | 108.85059 | 16848 ft | 280 kts | 98° |
| 2026-04-29 10:01 | -6.74796 | 108.86996 | 16848 ft | 280 kts | 98° |
| 2026-04-29 10:01 | -6.75102 | 108.88909 | 16847 ft | 280 kts | 98° |
| 2026-04-29 10:02 | -6.75412 | 108.90845 | 16843 ft | 280 kts | 98° |
| 2026-04-29 10:02 | -6.75722 | 108.92782 | 16845 ft | 280 kts | 98° |
| 2026-04-29 10:02 | -6.76030 | 108.94719 | 16842 ft | 280 kts | 98° |
| 2026-04-29 10:02 | -6.76340 | 108.96653 | 16844 ft | 280 kts | 98° |
| 2026-04-29 10:03 | -6.76647 | 108.98589 | 16846 ft | 280 kts | 98° |
| 2026-04-29 10:03 | -6.76958 | 109.00525 | 16850 ft | 280 kts | 98° |
| 2026-04-29 10:03 | -6.77265 | 109.02463 | 16842 ft | 280 kts | 98° |
| 2026-04-29 10:03 | -6.77575 | 109.04396 | 16843 ft | 280 kts | 98° |
| 2026-04-29 10:04 | -6.77879 | 109.06309 | 16843 ft | 280 kts | 98° |
| 2026-04-29 10:04 | -6.78189 | 109.08240 | 16844 ft | 280 kts | 98° |
| 2026-04-29 10:04 | -6.78497 | 109.10179 | 16838 ft | 280 kts | 98° |
| 2026-04-29 10:04 | -6.78808 | 109.12113 | 16838 ft | 280 kts | 98° |
| 2026-04-29 10:05 | -6.79107 | 109.14047 | 16840 ft | 280 kts | 97° |
| 2026-04-29 10:05 | -6.79382 | 109.15988 | 16837 ft | 280 kts | 97° |
| 2026-04-29 10:05 | -6.79657 | 109.17927 | 16837 ft | 280 kts | 97° |
| 2026-04-29 10:05 | -6.79928 | 109.19865 | 16834 ft | 280 kts | 97° |
| 2026-04-29 10:06 | -6.80203 | 109.21802 | 16837 ft | 280 kts | 97° |
| 2026-04-29 10:06 | -6.80477 | 109.23742 | 16832 ft | 280 kts | 97° |
| 2026-04-29 10:06 | -6.80751 | 109.25681 | 16834 ft | 280 kts | 97° |
| 2026-04-29 10:06 | -6.81026 | 109.27622 | 16831 ft | 280 kts | 97° |
| 2026-04-29 10:07 | -6.81299 | 109.29559 | 16836 ft | 280 kts | 97° |
| 2026-04-29 10:07 | -6.81570 | 109.31475 | 16834 ft | 280 kts | 97° |
| 2026-04-29 10:07 | -6.81843 | 109.33415 | 16832 ft | 280 kts | 97° |
| 2026-04-29 10:07 | -6.82117 | 109.35354 | 16832 ft | 280 kts | 97° |
| 2026-04-29 10:08 | -6.82390 | 109.37292 | 16833 ft | 280 kts | 97° |
| 2026-04-29 10:08 | -6.82662 | 109.39234 | 16832 ft | 280 kts | 97° |
| 2026-04-29 10:08 | -6.82937 | 109.41174 | 16829 ft | 280 kts | 97° |
| 2026-04-29 10:08 | -6.83210 | 109.43116 | 16827 ft | 280 kts | 97° |
| 2026-04-29 10:09 | -6.83484 | 109.45057 | 16830 ft | 280 kts | 97° |
| 2026-04-29 10:09 | -6.83757 | 109.46998 | 16830 ft | 280 kts | 97° |
| 2026-04-29 10:09 | -6.84030 | 109.48940 | 16828 ft | 280 kts | 97° |
| 2026-04-29 10:09 | -6.84304 | 109.50884 | 16831 ft | 280 kts | 97° |
| 2026-04-29 10:10 | -6.84578 | 109.52824 | 16826 ft | 280 kts | 97° |
| 2026-04-29 10:10 | -6.84849 | 109.54764 | 16829 ft | 280 kts | 97° |
| 2026-04-29 10:10 | -6.85122 | 109.56707 | 16827 ft | 280 kts | 97° |
| 2026-04-29 10:10 | -6.85394 | 109.58648 | 16830 ft | 280 kts | 97° |
| 2026-04-29 10:11 | -6.85664 | 109.60566 | 16827 ft | 280 kts | 97° |
| 2026-04-29 10:11 | -6.85938 | 109.62511 | 16829 ft | 280 kts | 97° |
| 2026-04-29 10:11 | -6.86211 | 109.64454 | 16826 ft | 280 kts | 97° |
| 2026-04-29 10:11 | -6.86484 | 109.66398 | 16826 ft | 280 kts | 97° |
| 2026-04-29 10:12 | -6.86757 | 109.68346 | 16828 ft | 280 kts | 97° |
| 2026-04-29 10:12 | -6.87030 | 109.70291 | 16827 ft | 280 kts | 97° |
| 2026-04-29 10:12 | -6.87303 | 109.72237 | 16824 ft | 281 kts | 97° |
| 2026-04-29 10:12 | -6.87576 | 109.74184 | 16823 ft | 281 kts | 97° |
| 2026-04-29 10:13 | -6.87848 | 109.76125 | 16824 ft | 280 kts | 97° |
| 2026-04-29 10:13 | -6.88140 | 109.78060 | 16823 ft | 278 kts | 102° |
| 2026-04-29 10:13 | -6.88630 | 109.79944 | 16826 ft | 277 kts | 101° |
| 2026-04-29 10:13 | -6.88974 | 109.81804 | 16826 ft | 269 kts | 99° |
| 2026-04-29 10:14 | -6.89265 | 109.83634 | 16795 ft | 261 kts | 97° |
| 2026-04-29 10:14 | -6.89456 | 109.85470 | 16478 ft | 266 kts | 95° |
| 2026-04-29 10:14 | -6.89638 | 109.87334 | 16163 ft | 270 kts | 96° |
| 2026-04-29 10:14 | -6.89884 | 109.89236 | 15847 ft | 276 kts | 97° |
| 2026-04-29 10:15 | -6.90192 | 109.91167 | 15525 ft | 282 kts | 98° |
| 2026-04-29 10:15 | -6.90507 | 109.93121 | 15207 ft | 285 kts | 98° |
| 2026-04-29 10:15 | -6.90816 | 109.95106 | 14880 ft | 288 kts | 98° |
| 2026-04-29 10:15 | -6.91124 | 109.97081 | 14558 ft | 283 kts | 98° |
| 2026-04-29 10:16 | -6.91422 | 109.99020 | 14246 ft | 278 kts | 98° |
| 2026-04-29 10:16 | -6.91618 | 110.00294 | 14043 ft | 276 kts | 98° |
| 2026-04-29 10:16 | -6.92006 | 110.02798 | 13638 ft | 273 kts | 98° |
| 2026-04-29 10:16 | -6.92300 | 110.04701 | 13299 ft | 271 kts | 98° |
| 2026-04-29 10:17 | -6.92585 | 110.06541 | 12964 ft | 269 kts | 98° |
| 2026-04-29 10:17 | -6.92872 | 110.08396 | 12643 ft | 267 kts | 98° |
| 2026-04-29 10:17 | -6.93158 | 110.10243 | 12313 ft | 266 kts | 98° |
| 2026-04-29 10:17 | -6.93441 | 110.12080 | 11993 ft | 265 kts | 98° |
| 2026-04-29 10:18 | -6.93724 | 110.13913 | 11676 ft | 264 kts | 98° |
| 2026-04-29 10:18 | -6.94008 | 110.15743 | 11365 ft | 264 kts | 98° |
| 2026-04-29 10:18 | -6.94288 | 110.17564 | 11056 ft | 263 kts | 98° |
| 2026-04-29 10:18 | -6.94567 | 110.19382 | 10752 ft | 262 kts | 98° |
| 2026-04-29 10:19 | -6.94849 | 110.21194 | 10440 ft | 262 kts | 98° |
| 2026-04-29 10:19 | -6.95126 | 110.23001 | 10145 ft | 261 kts | 98° |
| 2026-04-29 10:19 | -6.95405 | 110.24803 | 9851 ft | 260 kts | 98° |
| 2026-04-29 10:19 | -6.95682 | 110.26601 | 9536 ft | 260 kts | 98° |
| 2026-04-29 10:20 | -6.95960 | 110.28396 | 9199 ft | 259 kts | 98° |
| 2026-04-29 10:20 | -6.96235 | 110.30189 | 8885 ft | 258 kts | 98° |
| 2026-04-29 10:20 | -6.96506 | 110.31952 | 8574 ft | 258 kts | 98° |
| 2026-04-29 10:20 | -6.96781 | 110.33731 | 8261 ft | 257 kts | 98° |
| 2026-04-29 10:21 | -6.97044 | 110.35430 | 7957 ft | 231 kts | 98° |
| 2026-04-29 10:21 | -6.97275 | 110.36948 | 7694 ft | 209 kts | 98° |
| 2026-04-29 10:21 | -6.97521 | 110.38337 | 7450 ft | 194 kts | 101° |
| 2026-04-29 10:21 | -6.97801 | 110.39627 | 7222 ft | 183 kts | 102° |
| 2026-04-29 10:22 | -6.98096 | 110.40879 | 7005 ft | 187 kts | 103° |
| 2026-04-29 10:22 | -6.98397 | 110.42165 | 6782 ft | 190 kts | 102° |
| 2026-04-29 10:22 | -6.98699 | 110.43459 | 6563 ft | 188 kts | 102° |
| 2026-04-29 10:22 | -6.98986 | 110.44690 | 6347 ft | 178 kts | 102° |
| 2026-04-29 10:23 | -6.99262 | 110.45879 | 6136 ft | 173 kts | 102° |
| 2026-04-29 10:23 | -6.99536 | 110.47057 | 5911 ft | 175 kts | 102° |
| 2026-04-29 10:23 | -6.99822 | 110.48305 | 5690 ft | 189 kts | 103° |
| 2026-04-29 10:23 | -7.00120 | 110.49574 | 5463 ft | 181 kts | 102° |
| 2026-04-29 10:24 | -7.00401 | 110.50780 | 5242 ft | 175 kts | 102° |
| 2026-04-29 10:24 | -7.00679 | 110.52000 | 5025 ft | 183 kts | 102° |
| 2026-04-29 10:24 | -7.01011 | 110.53244 | 4754 ft | 178 kts | 114° |
| 2026-04-29 10:24 | -7.01933 | 110.54050 | 4500 ft | 186 kts | 162° |
| 2026-04-29 10:25 | -7.03225 | 110.53939 | 4226 ft | 193 kts | 202° |
| 2026-04-29 10:25 | -7.04376 | 110.53291 | 3943 ft | 187 kts | 212° |
| 2026-04-29 10:25 | -7.05403 | 110.52512 | 3665 ft | 184 kts | 218° |
| 2026-04-29 10:25 | -7.06371 | 110.51677 | 3380 ft | 184 kts | 223° |
| 2026-04-29 10:26 | -7.06880 | 110.50554 | 3087 ft | 180 kts | 270° |
| 2026-04-29 10:26 | -7.06586 | 110.49360 | 2916 ft | 174 kts | 292° |
| 2026-04-29 10:26 | -7.06086 | 110.48285 | 2825 ft | 166 kts | 300° |
| 2026-04-29 10:26 | -7.05452 | 110.47267 | 2451 ft | 175 kts | 307° |
| 2026-04-29 10:27 | -7.03990 | 110.45417 | 1888 ft | 153 kts | 313° |
| 2026-04-29 10:27 | -7.03291 | 110.44594 | 1532 ft | 151 kts | 312° |
| 2026-04-29 10:27 | -7.02654 | 110.43851 | 1362 ft | 130 kts | 312° |
| 2026-04-29 10:28 | -7.02100 | 110.43195 | 1234 ft | 117 kts | 313° |
| 2026-04-29 10:28 | -7.01579 | 110.42589 | 1100 ft | 112 kts | 314° |
| 2026-04-29 10:28 | -7.01107 | 110.42038 | 1017 ft | 104 kts | 314° |
| 2026-04-29 10:28 | -7.00696 | 110.41556 | 960 ft | 109 kts | 311° |
| 2026-04-29 10:29 | -7.00213 | 110.40998 | 881 ft | 103 kts | 315° |
| 2026-04-29 10:29 | -6.99740 | 110.40469 | 735 ft | 102 kts | 315° |
| 2026-04-29 10:29 | -6.99285 | 110.39930 | 574 ft | 102 kts | 314° |
| 2026-04-29 10:29 | -6.98827 | 110.39422 | 397 ft | 100 kts | 315° |
| 2026-04-29 10:30 | -6.98373 | 110.38871 | 216 ft | 103 kts | 313° |
| 2026-04-29 10:30 | -6.97902 | 110.38319 | 72 ft | 105 kts | 313° |
| 2026-04-29 10:30 | -6.97455 | 110.37792 | 4 ft | 93 kts | 310° |
| 2026-04-29 10:30 | -6.97179 | 110.37463 | 0 ft | 31 kts | 309° |
| 2026-04-29 10:31 | -6.97105 | 110.37419 | 0 ft | 9 kts | 14° |
| 2026-04-29 10:31 | -6.97041 | 110.37466 | 10 ft | 11 kts | 39° |
| 2026-04-29 10:31 | -6.96996 | 110.37501 | 13 ft | 8 kts | 40° |
| 2026-04-29 10:31 | -6.96933 | 110.37555 | 15 ft | 11 kts | 40° |
| 2026-04-29 10:32 | -6.96903 | 110.37560 | 15 ft | 3 kts | 317° |
| 2026-04-29 10:32 | -6.96885 | 110.37538 | 16 ft | 5 kts | 311° |
| 2026-04-29 10:32 | -6.96860 | 110.37510 | 15 ft | 5 kts | 310° |
| 2026-04-29 10:32 | -6.96835 | 110.37478 | 15 ft | 6 kts | 309° |
| 2026-04-29 10:33 | -6.96816 | 110.37476 | 15 ft | 1 kts | 39° |
| 2026-04-29 10:33 | -6.96804 | 110.37487 | 15 ft | 4 kts | 41° |
| 2026-04-29 10:33 | -6.96779 | 110.37508 | 15 ft | 5 kts | 41° |
| 2026-04-29 10:33 | -6.96763 | 110.37522 | 15 ft | 0 kts | 39° |